Weather at Lac Sept-Îles Seaplane Base

Public forecast

Using degrees Celsius for public forecast. Weather courtesy of forecast.io.

Closest aviation weather report (METAR) to Lac Sept-Îles Seaplane Base

Report is more than 6 hours old.

Closest report is C J.H.L.(Joe) Lecomte) Heliport, 10.1 nm (18.8 km) ESE.

2024/07/19 19:14 (retrieved 1 day ago)

CYOY 191914Z 26009KT 240V300 15SM SCT050 SCT250 25/11 A3000 RMK CU3CI1 DENSITY ALT 1888FT LAST OBS /NEXT 221100 UTC SLP160

Closest aviation forecast (TAF) to Lac Sept-Îles Seaplane Base

Forecast is more than 12 hours old.

Closest forecast is C J.H.L.(Joe) Lecomte) Heliport, 10.1 nm (18.8 km) ESE.

2024/07/19 18:21 Ammendment (retrieved 1 day ago)

TAF AMD TAF AMD CYOY 191918Z 1918/2006 CNL RMK END OF FLY PROGRAM NXT FCST BY 200000Z